sensor_id;sensor_type;location;lat;lon;timestamp;pressure;altitude;pressure_sealevel;temperature;humidity
6028;BME280;3042;43.194;27.646;2023-01-27T00:00:42;101164.56;;;13.57;100.00
6028;BME280;3042;43.194;27.646;2023-01-27T00:03:11;101113.53;;;13.35;100.00
6028;BME280;3042;43.194;27.646;2023-01-27T00:05:38;101154.47;;;13.42;100.00
6028;BME280;3042;43.194;27.646;2023-01-27T00:08:06;101133.91;;;13.70;100.00
6028;BME280;3042;43.194;27.646;2023-01-27T00:10:33;101135.47;;;13.65;100.00
6028;BME280;3042;43.194;27.646;2023-01-27T00:13:00;101142.41;;;13.89;100.00
6028;BME280;3042;43.194;27.646;2023-01-27T00:15:44;101147.66;;;13.45;100.00
6028;BME280;3042;43.194;27.646;2023-01-27T00:18:13;101126.97;;;13.47;100.00
6028;BME280;3042;43.194;27.646;2023-01-27T00:20:40;101124.84;;;13.59;100.00
6028;BME280;3042;43.194;27.646;2023-01-27T00:23:26;101130.03;;;13.82;100.00
6028;BME280;3042;43.194;27.646;2023-01-27T00:26:12;101132.63;;;13.59;100.00
6028;BME280;3042;43.194;27.646;2023-01-27T00:28:40;101140.94;;;13.73;100.00
6028;BME280;3042;43.194;27.646;2023-01-27T00:31:09;101153.50;;;13.62;100.00
6028;BME280;3042;43.194;27.646;2023-01-27T00:33:55;101148.72;;;13.96;100.00
6028;BME280;3042;43.194;27.646;2023-01-27T00:36:27;101175.50;;;13.94;100.00
6028;BME280;3042;43.194;27.646;2023-01-27T00:38:54;101186.34;;;13.60;100.00
6028;BME280;3042;43.194;27.646;2023-01-27T00:41:21;101164.13;;;13.68;100.00
6028;BME280;3042;43.194;27.646;2023-01-27T00:43:49;100880.41;;;11.89;100.00
6028;BME280;3042;43.194;27.646;2023-01-27T00:46:18;101147.59;;;13.89;100.00
6028;BME280;3042;43.194;27.646;2023-01-27T00:48:45;101157.13;;;13.66;100.00
6028;BME280;3042;43.194;27.646;2023-01-27T00:51:14;101152.63;;;13.62;100.00
6028;BME280;3042;43.194;27.646;2023-01-27T00:53:41;101174.06;;;13.56;100.00
6028;BME280;3042;43.194;27.646;2023-01-27T00:56:09;101183.06;;;13.43;100.00
6028;BME280;3042;43.194;27.646;2023-01-27T00:58:36;101188.97;;;13.62;100.00
6028;BME280;3042;43.194;27.646;2023-01-27T01:01:05;101169.59;;;13.75;100.00
6028;BME280;3042;43.194;27.646;2023-01-27T01:03:33;101172.38;;;13.36;100.00
6028;BME280;3042;43.194;27.646;2023-01-27T01:06:02;101166.38;;;13.59;100.00
6028;BME280;3042;43.194;27.646;2023-01-27T01:08:32;101173.81;;;13.50;100.00
6028;BME280;3042;43.194;27.646;2023-01-27T01:10:59;101177.25;;;13.49;100.00
6028;BME280;3042;43.194;27.646;2023-01-27T01:13:27;101158.94;;;13.68;100.00
6028;BME280;3042;43.194;27.646;2023-01-27T01:15:54;101147.19;;;13.78;100.00
6028;BME280;3042;43.194;27.646;2023-01-27T01:18:22;101146.97;;;13.72;100.00
6028;BME280;3042;43.194;27.646;2023-01-27T01:20:49;101153.03;;;13.27;100.00
6028;BME280;3042;43.194;27.646;2023-01-27T01:23:16;101142.28;;;13.41;100.00
6028;BME280;3042;43.194;27.646;2023-01-27T01:25:51;101114.16;;;13.51;100.00
6028;BME280;3042;43.194;27.646;2023-01-27T01:28:18;101110.38;;;13.22;100.00
6028;BME280;3042;43.194;27.646;2023-01-27T01:30:45;101098.75;;;13.34;100.00
6028;BME280;3042;43.194;27.646;2023-01-27T01:33:12;101100.81;;;12.99;100.00
6028;BME280;3042;43.194;27.646;2023-01-27T01:35:39;101093.75;;;12.74;100.00
6028;BME280;3042;43.194;27.646;2023-01-27T01:38:06;101089.94;;;12.86;100.00
6028;BME280;3042;43.194;27.646;2023-01-27T01:40:33;101094.88;;;12.80;100.00
6028;BME280;3042;43.194;27.646;2023-01-27T01:43:02;101098.19;;;12.76;100.00
6028;BME280;3042;43.194;27.646;2023-01-27T01:45:48;101085.91;;;12.93;100.00
6028;BME280;3042;43.194;27.646;2023-01-27T01:48:20;100777.84;;;11.09;100.00
6028;BME280;3042;43.194;27.646;2023-01-27T01:50:51;101084.63;;;12.83;100.00
6028;BME280;3042;43.194;27.646;2023-01-27T01:53:22;101086.16;;;12.78;100.00
6028;BME280;3042;43.194;27.646;2023-01-27T01:55:55;101075.34;;;12.88;100.00
6028;BME280;3042;43.194;27.646;2023-01-27T01:58:24;101064.50;;;12.99;100.00
6028;BME280;3042;43.194;27.646;2023-01-27T02:00:53;101067.28;;;12.82;100.00
6028;BME280;3042;43.194;27.646;2023-01-27T02:03:22;101061.22;;;12.82;100.00
6028;BME280;3042;43.194;27.646;2023-01-27T02:05:50;101060.34;;;12.81;100.00
6028;BME280;3042;43.194;27.646;2023-01-27T02:08:21;101052.75;;;12.86;100.00
6028;BME280;3042;43.194;27.646;2023-01-27T02:10:50;101058.94;;;12.89;100.00
6028;BME280;3042;43.194;27.646;2023-01-27T02:13:19;101039.84;;;12.66;100.00
6028;BME280;3042;43.194;27.646;2023-01-27T02:15:49;101022.94;;;12.97;100.00
6028;BME280;3042;43.194;27.646;2023-01-27T02:18:18;100823.78;;;11.56;100.00
6028;BME280;3042;43.194;27.646;2023-01-27T02:20:46;101005.81;;;12.80;100.00
6028;BME280;3042;43.194;27.646;2023-01-27T02:23:23;101000.25;;;12.92;100.00
6028;BME280;3042;43.194;27.646;2023-01-27T02:25:57;101009.66;;;12.67;100.00
6028;BME280;3042;43.194;27.646;2023-01-27T02:28:28;100995.47;;;12.80;100.00
6028;BME280;3042;43.194;27.646;2023-01-27T02:30:55;100981.94;;;12.66;100.00
6028;BME280;3042;43.194;27.646;2023-01-27T02:33:23;100965.16;;;12.56;100.00
6028;BME280;3042;43.194;27.646;2023-01-27T02:35:55;100965.03;;;12.53;100.00
6028;BME280;3042;43.194;27.646;2023-01-27T02:38:26;100946.25;;;12.81;100.00
6028;BME280;3042;43.194;27.646;2023-01-27T02:40:59;100717.41;;;11.28;100.00
6028;BME280;3042;43.194;27.646;2023-01-27T02:43:27;100885.06;;;12.19;100.00
6028;BME280;3042;43.194;27.646;2023-01-27T02:45:56;100939.75;;;12.48;100.00
6028;BME280;3042;43.194;27.646;2023-01-27T02:48:23;100921.66;;;12.49;100.00
6028;BME280;3042;43.194;27.646;2023-01-27T02:50:50;100927.97;;;12.56;100.00
6028;BME280;3042;43.194;27.646;2023-01-27T02:53:17;100934.13;;;12.58;100.00
6028;BME280;3042;43.194;27.646;2023-01-27T02:55:44;100936.56;;;12.55;100.00
6028;BME280;3042;43.194;27.646;2023-01-27T02:58:12;100919.03;;;12.70;100.00
6028;BME280;3042;43.194;27.646;2023-01-27T03:00:41;100910.03;;;12.60;100.00
6028;BME280;3042;43.194;27.646;2023-01-27T03:03:08;100908.91;;;12.54;100.00
6028;BME280;3042;43.194;27.646;2023-01-27T03:05:35;100888.28;;;12.57;100.00
6028;BME280;3042;43.194;27.646;2023-01-27T03:08:02;100876.03;;;12.53;100.00
6028;BME280;3042;43.194;27.646;2023-01-27T03:10:29;100860.09;;;12.21;100.00
6028;BME280;3042;43.194;27.646;2023-01-27T03:12:56;100860.00;;;12.40;100.00
6028;BME280;3042;43.194;27.646;2023-01-27T03:15:24;100847.75;;;12.59;100.00
6028;BME280;3042;43.194;27.646;2023-01-27T03:18:10;100844.44;;;12.40;100.00
6028;BME280;3042;43.194;27.646;2023-01-27T03:20:41;100835.19;;;12.47;100.00
6028;BME280;3042;43.194;27.646;2023-01-27T03:23:09;100846.22;;;12.41;100.00
6028;BME280;3042;43.194;27.646;2023-01-27T03:25:40;100834.44;;;12.50;100.00
6028;BME280;3042;43.194;27.646;2023-01-27T03:28:07;100828.09;;;12.41;100.00
6028;BME280;3042;43.194;27.646;2023-01-27T03:30:35;100821.34;;;12.69;100.00
6028;BME280;3042;43.194;27.646;2023-01-27T03:33:03;100822.91;;;12.41;100.00
6028;BME280;3042;43.194;27.646;2023-01-27T03:35:31;100655.72;;;11.37;100.00
6028;BME280;3042;43.194;27.646;2023-01-27T03:38:04;100861.06;;;12.68;100.00
6028;BME280;3042;43.194;27.646;2023-01-27T03:40:49;100751.09;;;11.92;100.00
6028;BME280;3042;43.194;27.646;2023-01-27T03:43:33;100850.31;;;12.81;100.00
6028;BME280;3042;43.194;27.646;2023-01-27T03:46:19;100885.16;;;12.88;100.00
6028;BME280;3042;43.194;27.646;2023-01-27T03:48:48;100888.19;;;13.24;100.00
6028;BME280;3042;43.194;27.646;2023-01-27T03:51:17;100887.94;;;13.41;100.00
6028;BME280;3042;43.194;27.646;2023-01-27T03:53:44;100896.06;;;13.03;100.00
6028;BME280;3042;43.194;27.646;2023-01-27T03:56:12;100763.56;;;12.25;100.00
6028;BME280;3042;43.194;27.646;2023-01-27T03:58:39;100906.34;;;13.24;100.00
6028;BME280;3042;43.194;27.646;2023-01-27T04:01:11;100917.81;;;13.29;100.00
6028;BME280;3042;43.194;27.646;2023-01-27T04:03:40;100900.28;;;13.48;100.00
6028;BME280;3042;43.194;27.646;2023-01-27T04:06:26;100911.34;;;13.18;100.00
6028;BME280;3042;43.194;27.646;2023-01-27T04:09:12;100905.47;;;13.24;100.00
6028;BME280;3042;43.194;27.646;2023-01-27T04:11:39;100911.53;;;13.24;100.00
6028;BME280;3042;43.194;27.646;2023-01-27T04:14:24;100904.97;;;13.33;100.00
6028;BME280;3042;43.194;27.646;2023-01-27T04:16:54;100895.75;;;13.18;100.00
6028;BME280;3042;43.194;27.646;2023-01-27T04:19:23;100892.34;;;13.43;100.00
6028;BME280;3042;43.194;27.646;2023-01-27T04:21:52;100894.44;;;13.29;100.00
6028;BME280;3042;43.194;27.646;2023-01-27T04:24:19;100910.03;;;13.29;100.00
6028;BME280;3042;43.194;27.646;2023-01-27T04:26:52;100904.81;;;13.29;100.00
6028;BME280;3042;43.194;27.646;2023-01-27T04:29:20;100912.00;;;13.37;100.00
6028;BME280;3042;43.194;27.646;2023-01-27T04:31:48;100892.97;;;13.62;100.00
6028;BME280;3042;43.194;27.646;2023-01-27T04:34:16;100901.06;;;13.45;100.00
6028;BME280;3042;43.194;27.646;2023-01-27T04:36:45;100904.16;;;13.59;100.00
6028;BME280;3042;43.194;27.646;2023-01-27T04:39:13;100895.97;;;13.72;100.00
6028;BME280;3042;43.194;27.646;2023-01-27T04:41:41;100889.28;;;13.55;100.00
6028;BME280;3042;43.194;27.646;2023-01-27T04:44:08;100894.38;;;13.52;100.00
6028;BME280;3042;43.194;27.646;2023-01-27T04:46:36;100901.53;;;13.34;100.00
6028;BME280;3042;43.194;27.646;2023-01-27T04:49:04;100824.88;;;13.19;100.00
6028;BME280;3042;43.194;27.646;2023-01-27T04:51:31;100761.00;;;12.73;100.00
6028;BME280;3042;43.194;27.646;2023-01-27T04:54:00;100887.13;;;13.67;100.00
6028;BME280;3042;43.194;27.646;2023-01-27T04:56:30;100877.56;;;13.92;100.00
6028;BME280;3042;43.194;27.646;2023-01-27T04:58:57;100881.19;;;13.71;100.00
6028;BME280;3042;43.194;27.646;2023-01-27T05:01:25;100882.75;;;13.92;100.00
6028;BME280;3042;43.194;27.646;2023-01-27T05:03:52;100880.47;;;13.76;100.00
6028;BME280;3042;43.194;27.646;2023-01-27T05:06:20;100878.81;;;13.78;100.00
6028;BME280;3042;43.194;27.646;2023-01-27T05:08:47;100883.59;;;13.65;100.00
6028;BME280;3042;43.194;27.646;2023-01-27T05:11:16;100874.31;;;13.99;100.00
6028;BME280;3042;43.194;27.646;2023-01-27T05:13:43;100876.44;;;13.84;100.00
6028;BME280;3042;43.194;27.646;2023-01-27T05:16:12;100904.88;;;13.81;100.00
6028;BME280;3042;43.194;27.646;2023-01-27T05:18:41;100794.91;;;13.53;100.00
6028;BME280;3042;43.194;27.646;2023-01-27T05:21:12;100861.69;;;14.10;100.00
6028;BME280;3042;43.194;27.646;2023-01-27T05:23:39;100871.47;;;13.91;100.00
6028;BME280;3042;43.194;27.646;2023-01-27T05:26:09;100754.75;;;13.42;100.00
6028;BME280;3042;43.194;27.646;2023-01-27T05:28:40;100863.66;;;14.17;100.00
6028;BME280;3042;43.194;27.646;2023-01-27T05:31:09;100769.75;;;14.06;100.00
6028;BME280;3042;43.194;27.646;2023-01-27T05:33:36;100870.66;;;14.48;100.00
6028;BME280;3042;43.194;27.646;2023-01-27T05:36:05;100673.84;;;13.28;100.00
6028;BME280;3042;43.194;27.646;2023-01-27T05:38:33;100861.38;;;14.28;100.00
6028;BME280;3042;43.194;27.646;2023-01-27T05:41:02;100845.81;;;14.56;100.00
6028;BME280;3042;43.194;27.646;2023-01-27T05:43:30;100618.00;;;12.86;100.00
6028;BME280;3042;43.194;27.646;2023-01-27T05:46:04;100772.34;;;14.06;100.00
6028;BME280;3042;43.194;27.646;2023-01-27T05:48:33;100864.53;;;14.18;100.00
6028;BME280;3042;43.194;27.646;2023-01-27T05:51:01;100610.78;;;12.52;100.00
6028;BME280;3042;43.194;27.646;2023-01-27T05:53:28;100620.03;;;12.44;100.00
6028;BME280;3042;43.194;27.646;2023-01-27T05:55:55;100771.53;;;13.53;100.00
6028;BME280;3042;43.194;27.646;2023-01-27T05:58:22;100851.22;;;13.81;100.00
6028;BME280;3042;43.194;27.646;2023-01-27T06:00:50;100845.28;;;13.58;100.00
6028;BME280;3042;43.194;27.646;2023-01-27T06:03:20;100839.22;;;13.85;100.00
6028;BME280;3042;43.194;27.646;2023-01-27T06:05:54;100819.41;;;14.15;100.00
6028;BME280;3042;43.194;27.646;2023-01-27T06:08:24;100775.69;;;13.48;100.00
6028;BME280;3042;43.194;27.646;2023-01-27T06:10:52;100716.47;;;13.35;100.00
6028;BME280;3042;43.194;27.646;2023-01-27T06:13:22;100800.91;;;13.78;100.00
6028;BME280;3042;43.194;27.646;2023-01-27T06:15:49;100686.19;;;13.09;100.00
6028;BME280;3042;43.194;27.646;2023-01-27T06:18:18;100800.53;;;13.67;100.00
6028;BME280;3042;43.194;27.646;2023-01-27T06:20:45;100792.91;;;13.71;100.00
6028;BME280;3042;43.194;27.646;2023-01-27T06:23:13;100799.34;;;13.83;100.00
6028;BME280;3042;43.194;27.646;2023-01-27T06:25:42;100798.06;;;13.97;100.00
6028;BME280;3042;43.194;27.646;2023-01-27T06:28:09;100722.91;;;13.47;100.00
6028;BME280;3042;43.194;27.646;2023-01-27T06:30:38;100694.94;;;13.39;100.00
6028;BME280;3042;43.194;27.646;2023-01-27T06:33:06;100786.06;;;13.73;100.00
6028;BME280;3042;43.194;27.646;2023-01-27T06:35:36;100728.09;;;13.75;100.00
6028;BME280;3042;43.194;27.646;2023-01-27T06:38:05;100779.97;;;14.00;100.00
6028;BME280;3042;43.194;27.646;2023-01-27T06:40:33;100769.34;;;13.65;100.00
6028;BME280;3042;43.194;27.646;2023-01-27T06:43:00;100774.72;;;13.71;100.00
6028;BME280;3042;43.194;27.646;2023-01-27T06:45:28;100778.56;;;13.83;100.00
6028;BME280;3042;43.194;27.646;2023-01-27T06:47:55;100770.88;;;14.14;100.00
6028;BME280;3042;43.194;27.646;2023-01-27T06:50:23;100781.13;;;14.10;100.00
6028;BME280;3042;43.194;27.646;2023-01-27T06:52:52;100783.59;;;14.34;100.00
6028;BME280;3042;43.194;27.646;2023-01-27T06:55:24;100784.91;;;14.20;100.00
6028;BME280;3042;43.194;27.646;2023-01-27T06:57:51;100572.91;;;12.81;100.00
6028;BME280;3042;43.194;27.646;2023-01-27T07:00:19;100797.44;;;14.33;100.00
6028;BME280;3042;43.194;27.646;2023-01-27T07:02:46;100795.22;;;14.18;100.00
6028;BME280;3042;43.194;27.646;2023-01-27T07:05:13;100651.00;;;13.18;100.00
6028;BME280;3042;43.194;27.646;2023-01-27T07:07:40;100801.13;;;14.41;100.00
6028;BME280;3042;43.194;27.646;2023-01-27T07:10:10;100806.25;;;14.38;100.00
6028;BME280;3042;43.194;27.646;2023-01-27T07:12:37;100808.47;;;14.26;100.00
6028;BME280;3042;43.194;27.646;2023-01-27T07:15:06;100803.38;;;14.57;100.00
6028;BME280;3042;43.194;27.646;2023-01-27T07:17:33;100805.97;;;14.57;100.00
6028;BME280;3042;43.194;27.646;2023-01-27T07:20:01;100763.53;;;14.59;100.00
6028;BME280;3042;43.194;27.646;2023-01-27T07:22:28;100819.75;;;14.85;100.00
6028;BME280;3042;43.194;27.646;2023-01-27T07:24:55;100812.97;;;14.90;100.00
6028;BME280;3042;43.194;27.646;2023-01-27T07:27:24;100817.75;;;15.07;100.00
6028;BME280;3042;43.194;27.646;2023-01-27T07:29:51;100805.25;;;14.93;100.00
6028;BME280;3042;43.194;27.646;2023-01-27T07:32:18;100780.66;;;14.53;100.00
6028;BME280;3042;43.194;27.646;2023-01-27T07:34:45;100623.00;;;13.92;100.00
6028;BME280;3042;43.194;27.646;2023-01-27T07:37:12;100666.31;;;14.23;100.00
6028;BME280;3042;43.194;27.646;2023-01-27T07:39:39;100802.38;;;14.84;100.00
6028;BME280;3042;43.194;27.646;2023-01-27T07:42:07;100780.56;;;15.11;100.00
6028;BME280;3042;43.194;27.646;2023-01-27T07:44:36;100787.75;;;15.21;100.00
6028;BME280;3042;43.194;27.646;2023-01-27T07:47:03;100399.47;;;12.62;100.00
6028;BME280;3042;43.194;27.646;2023-01-27T07:49:30;100785.03;;;14.83;100.00
6028;BME280;3042;43.194;27.646;2023-01-27T07:51:57;100784.78;;;15.06;100.00
6028;BME280;3042;43.194;27.646;2023-01-27T07:54:24;100787.63;;;15.15;100.00
6028;BME280;3042;43.194;27.646;2023-01-27T07:56:51;100784.47;;;14.95;100.00
6028;BME280;3042;43.194;27.646;2023-01-27T07:59:18;100776.13;;;15.07;100.00
6028;BME280;3042;43.194;27.646;2023-01-27T08:01:46;100692.09;;;14.77;100.00
6028;BME280;3042;43.194;27.646;2023-01-27T08:04:14;100775.53;;;14.85;100.00
6028;BME280;3042;43.194;27.646;2023-01-27T08:06:41;100766.25;;;14.63;100.00
6028;BME280;3042;43.194;27.646;2023-01-27T08:09:08;100752.84;;;14.49;100.00
6028;BME280;3042;43.194;27.646;2023-01-27T08:11:35;100754.69;;;14.53;100.00
6028;BME280;3042;43.194;27.646;2023-01-27T08:14:02;100751.13;;;14.80;100.00
6028;BME280;3042;43.194;27.646;2023-01-27T08:16:30;100767.31;;;14.70;100.00
6028;BME280;3042;43.194;27.646;2023-01-27T08:18:58;100737.63;;;14.62;100.00
6028;BME280;3042;43.194;27.646;2023-01-27T08:21:25;100685.94;;;14.42;100.00
6028;BME280;3042;43.194;27.646;2023-01-27T08:23:57;100700.59;;;14.70;100.00
6028;BME280;3042;43.194;27.646;2023-01-27T08:26:24;100468.91;;;13.29;100.00
6028;BME280;3042;43.194;27.646;2023-01-27T08:28:52;100698.28;;;14.51;100.00
6028;BME280;3042;43.194;27.646;2023-01-27T08:31:19;100689.22;;;14.67;100.00
6028;BME280;3042;43.194;27.646;2023-01-27T08:33:50;100692.81;;;14.72;100.00
6028;BME280;3042;43.194;27.646;2023-01-27T08:36:19;100579.16;;;14.03;100.00
6028;BME280;3042;43.194;27.646;2023-01-27T08:38:47;100677.38;;;14.78;100.00
6028;BME280;3042;43.194;27.646;2023-01-27T08:41:17;100662.13;;;14.93;100.00
6028;BME280;3042;43.194;27.646;2023-01-27T08:43:44;100616.16;;;14.57;100.00
6028;BME280;3042;43.194;27.646;2023-01-27T08:46:12;100665.66;;;14.95;100.00
6028;BME280;3042;43.194;27.646;2023-01-27T08:48:39;100563.41;;;14.30;100.00
6028;BME280;3042;43.194;27.646;2023-01-27T08:51:07;100671.28;;;15.12;100.00
6028;BME280;3042;43.194;27.646;2023-01-27T08:53:36;100657.56;;;15.18;100.00
6028;BME280;3042;43.194;27.646;2023-01-27T08:56:04;100557.44;;;14.66;100.00
6028;BME280;3042;43.194;27.646;2023-01-27T08:58:34;100616.00;;;14.85;100.00
6028;BME280;3042;43.194;27.646;2023-01-27T09:01:02;100678.50;;;15.23;100.00
6028;BME280;3042;43.194;27.646;2023-01-27T09:03:29;100655.59;;;15.08;100.00
6028;BME280;3042;43.194;27.646;2023-01-27T09:05:57;100641.28;;;15.27;100.00
6028;BME280;3042;43.194;27.646;2023-01-27T09:08:24;100387.03;;;13.74;100.00
6028;BME280;3042;43.194;27.646;2023-01-27T09:10:52;100633.97;;;15.50;100.00
6028;BME280;3042;43.194;27.646;2023-01-27T09:13:20;100570.25;;;14.94;100.00
6028;BME280;3042;43.194;27.646;2023-01-27T09:15:50;100627.09;;;15.52;100.00
6028;BME280;3042;43.194;27.646;2023-01-27T09:18:17;100531.91;;;14.86;100.00
6028;BME280;3042;43.194;27.646;2023-01-27T09:20:44;100637.50;;;15.52;100.00
6028;BME280;3042;43.194;27.646;2023-01-27T09:23:11;100463.66;;;14.60;100.00
6028;BME280;3042;43.194;27.646;2023-01-27T09:25:38;100519.75;;;14.86;100.00
6028;BME280;3042;43.194;27.646;2023-01-27T09:28:06;100289.13;;;13.34;100.00
6028;BME280;3042;43.194;27.646;2023-01-27T09:30:41;100276.00;;;13.62;100.00
6028;BME280;3042;43.194;27.646;2023-01-27T09:33:09;100619.88;;;15.38;100.00
6028;BME280;3042;43.194;27.646;2023-01-27T09:35:41;100534.06;;;15.43;100.00
6028;BME280;3042;43.194;27.646;2023-01-27T09:38:10;100665.53;;;15.62;100.00
6028;BME280;3042;43.194;27.646;2023-01-27T09:40:52;100668.38;;;15.71;100.00
6028;BME280;3042;43.194;27.646;2023-01-27T09:43:38;100686.38;;;15.63;100.00
6028;BME280;3042;43.194;27.646;2023-01-27T09:46:45;100687.19;;;15.61;100.00
6028;BME280;3042;43.194;27.646;2023-01-27T09:49:42;100690.66;;;15.60;100.00
6028;BME280;3042;43.194;27.646;2023-01-27T09:52:28;100503.03;;;14.40;100.00
6028;BME280;3042;43.194;27.646;2023-01-27T09:55:02;100682.91;;;15.63;100.00
6028;BME280;3042;43.194;27.646;2023-01-27T09:57:41;100453.34;;;13.93;100.00
6028;BME280;3042;43.194;27.646;2023-01-27T10:00:24;100580.22;;;14.76;100.00
6028;BME280;3042;43.194;27.646;2023-01-27T10:03:13;100675.84;;;15.59;100.00
6028;BME280;3042;43.194;27.646;2023-01-27T10:09:07;100644.81;;;15.68;100.00
6028;BME280;3042;43.194;27.646;2023-01-27T10:11:44;100664.41;;;15.89;100.00
6028;BME280;3042;43.194;27.646;2023-01-27T10:14:23;100662.72;;;15.91;100.00
6028;BME280;3042;43.194;27.646;2023-01-27T10:17:05;100652.34;;;15.94;100.00
6028;BME280;3042;43.194;27.646;2023-01-27T10:19:47;100638.91;;;15.75;100.00
6028;BME280;3042;43.194;27.646;2023-01-27T10:22:20;100620.41;;;15.63;100.00
6028;BME280;3042;43.194;27.646;2023-01-27T10:24:59;100615.25;;;15.66;100.00
6028;BME280;3042;43.194;27.646;2023-01-27T10:27:32;100577.84;;;15.23;100.00
6028;BME280;3042;43.194;27.646;2023-01-27T10:30:07;100493.63;;;14.80;100.00
6028;BME280;3042;43.194;27.646;2023-01-27T10:32:43;100571.22;;;15.37;100.00
6028;BME280;3042;43.194;27.646;2023-01-27T10:35:15;100572.00;;;15.32;100.00
6028;BME280;3042;43.194;27.646;2023-01-27T10:37:54;100569.06;;;15.59;100.00
6028;BME280;3042;43.194;27.646;2023-01-27T10:40:30;100522.06;;;15.51;100.00
6028;BME280;3042;43.194;27.646;2023-01-27T10:43:03;100541.69;;;15.76;100.00
6028;BME280;3042;43.194;27.646;2023-01-27T10:45:35;100528.69;;;16.23;100.00
6028;BME280;3042;43.194;27.646;2023-01-27T10:48:25;100516.78;;;15.91;100.00
6028;BME280;3042;43.194;27.646;2023-01-27T10:50:56;100509.38;;;16.12;100.00
6028;BME280;3042;43.194;27.646;2023-01-27T10:53:30;100500.16;;;16.33;100.00
6028;BME280;3042;43.194;27.646;2023-01-27T10:56:05;100502.63;;;16.77;100.00
6028;BME280;3042;43.194;27.646;2023-01-27T10:58:43;100373.72;;;16.04;100.00
6028;BME280;3042;43.194;27.646;2023-01-27T11:01:14;100466.22;;;16.30;100.00
6028;BME280;3042;43.194;27.646;2023-01-27T11:03:47;100497.44;;;16.25;100.00
6028;BME280;3042;43.194;27.646;2023-01-27T11:06:19;100485.81;;;16.58;100.00
6028;BME280;3042;43.194;27.646;2023-01-27T11:08:52;100481.56;;;16.66;100.00
6028;BME280;3042;43.194;27.646;2023-01-27T11:11:23;100251.38;;;15.57;100.00
6028;BME280;3042;43.194;27.646;2023-01-27T11:14:13;100441.13;;;16.38;100.00
6028;BME280;3042;43.194;27.646;2023-01-27T11:16:45;100441.59;;;16.68;100.00
6028;BME280;3042;43.194;27.646;2023-01-27T11:19:26;100437.53;;;16.86;100.00
6028;BME280;3042;43.194;27.646;2023-01-27T11:21:56;100431.38;;;16.81;100.00
6028;BME280;3042;43.194;27.646;2023-01-27T11:24:34;100436.72;;;16.90;100.00
6028;BME280;3042;43.194;27.646;2023-01-27T11:27:11;100421.59;;;17.33;100.00
6028;BME280;3042;43.194;27.646;2023-01-27T11:29:45;100417.94;;;17.20;100.00
6028;BME280;3042;43.194;27.646;2023-01-27T11:32:20;100407.72;;;17.37;100.00
6028;BME280;3042;43.194;27.646;2023-01-27T11:34:59;100394.00;;;17.60;100.00
6028;BME280;3042;43.194;27.646;2023-01-27T11:37:31;100380.09;;;17.61;100.00
6028;BME280;3042;43.194;27.646;2023-01-27T11:40:00;100396.75;;;17.73;100.00
6028;BME280;3042;43.194;27.646;2023-01-27T11:42:31;100395.78;;;17.61;100.00
6028;BME280;3042;43.194;27.646;2023-01-27T11:45:00;100168.78;;;16.11;100.00
6028;BME280;3042;43.194;27.646;2023-01-27T11:47:32;100409.78;;;17.69;100.00
6028;BME280;3042;43.194;27.646;2023-01-27T11:50:03;100407.53;;;18.07;100.00
6028;BME280;3042;43.194;27.646;2023-01-27T11:52:31;100427.16;;;17.64;100.00
6028;BME280;3042;43.194;27.646;2023-01-27T11:55:04;100420.63;;;18.06;100.00
6028;BME280;3042;43.194;27.646;2023-01-27T11:57:33;100426.59;;;17.96;100.00
6028;BME280;3042;43.194;27.646;2023-01-27T12:00:05;100342.06;;;17.03;100.00
6028;BME280;3042;43.194;27.646;2023-01-27T12:02:37;100235.66;;;16.79;100.00
6028;BME280;3042;43.194;27.646;2023-01-27T12:05:13;100423.47;;;18.33;100.00
6028;BME280;3042;43.194;27.646;2023-01-27T12:07:45;100427.19;;;18.72;100.00
6028;BME280;3042;43.194;27.646;2023-01-27T12:10:25;100438.47;;;18.59;100.00
6028;BME280;3042;43.194;27.646;2023-01-27T12:12:54;100441.63;;;18.15;100.00
6028;BME280;3042;43.194;27.646;2023-01-27T12:15:23;100091.34;;;16.01;100.00
6028;BME280;3042;43.194;27.646;2023-01-27T12:17:54;100453.88;;;18.22;100.00
6028;BME280;3042;43.194;27.646;2023-01-27T12:20:35;100451.94;;;18.01;100.00
6028;BME280;3042;43.194;27.646;2023-01-27T12:23:13;100455.59;;;18.20;100.00
6028;BME280;3042;43.194;27.646;2023-01-27T12:25:44;100457.28;;;18.17;100.00
6028;BME280;3042;43.194;27.646;2023-01-27T12:28:22;100459.13;;;18.25;100.00
6028;BME280;3042;43.194;27.646;2023-01-27T12:30:51;100461.72;;;18.24;100.00
6028;BME280;3042;43.194;27.646;2023-01-27T12:33:23;100387.91;;;17.59;100.00
6028;BME280;3042;43.194;27.646;2023-01-27T12:35:57;100248.88;;;16.93;100.00
6028;BME280;3042;43.194;27.646;2023-01-27T12:38:28;100463.00;;;17.77;100.00
6028;BME280;3042;43.194;27.646;2023-01-27T12:40:59;100476.28;;;17.22;100.00
6028;BME280;3042;43.194;27.646;2023-01-27T12:43:27;100323.81;;;16.38;100.00
6028;BME280;3042;43.194;27.646;2023-01-27T12:46:07;100453.31;;;17.65;100.00
6028;BME280;3042;43.194;27.646;2023-01-27T12:48:45;100475.53;;;17.28;100.00
6028;BME280;3042;43.194;27.646;2023-01-27T12:51:19;100375.63;;;16.16;100.00
6028;BME280;3042;43.194;27.646;2023-01-27T12:53:47;100343.66;;;15.72;100.00
6028;BME280;3042;43.194;27.646;2023-01-27T12:56:17;100318.25;;;15.60;100.00
6028;BME280;3042;43.194;27.646;2023-01-27T12:58:45;100487.09;;;16.84;100.00
6028;BME280;3042;43.194;27.646;2023-01-27T13:01:22;100516.06;;;17.03;100.00
6028;BME280;3042;43.194;27.646;2023-01-27T13:03:53;100499.28;;;16.84;100.00
6028;BME280;3042;43.194;27.646;2023-01-27T13:06:30;100497.31;;;16.74;100.00
6028;BME280;3042;43.194;27.646;2023-01-27T13:08:59;100494.34;;;16.49;100.00
6028;BME280;3042;43.194;27.646;2023-01-27T13:11:33;100486.84;;;16.71;100.00